Terminal Aerodrome Forecast
Issued by NWS Wilmington, OH

Current Version | Previous Version | Text Only | Print | Product List | Glossary Off
Versions: 1 2 3 4 5 6 7 8 9 10 11 12 13 14 15 16 17 18 19 20 21 22 23 24

000
FTUS41 KILN 081618 AAC
TAFILN
TAF AMD
KILN 081618Z 0816/0912 24010KT 1SM -SN OVC005
      TEMPO 0816/0817 1/2SM SN VV004
     FM081700 27010KT P6SM BKN006 OVC015
     FM082300 27010KT 3SM -SN BKN015 OVC025=

USA.gov is the U.S. government's official web portal to all federal, state and local government web resources and services.